Terminal Aerodrome Forecast
Issued by NWS

Home | Current Version | Previous Version | Text Only | Print | Product List | Glossary On
Versions: 1 2 3 4 5 6 7 8 9 10 11 12
416
FTUS45 KABQ 302340
TAFAEG
TAF
KAEG 302340Z 3100/3124 11009KT P6SM VCSH BKN070
     FM310200 12012KT P6SM VCSH SCT070 BKN120
     FM310600 VRB05KT P6SM FEW070 SCT120
     FM311400 VRB05KT P6SM VCSH SCT050 BKN110
     FM312200 10009KT P6SM VCTS BKN050CB=

USA.gov is the U.S. government's official web portal to all federal, state and local government web resources and services.